Time;durP1;ratioP1;P1;durP2;ratioP2;P2;SDS_P1;SDS_P2;PMS_P1;PMS_P2;Temp;Humidity;BMP_temperature;BMP_pressure;BME280_temperature;BME280_humidity;BME280_pressure;Samples;Min_cycle;Max_cycle;Signal;HPM_P1;HPM_P2
2023/01/26 00:02:02;;;;;;;;;;;0.30;82.30;;;;;;5037772;28;19956;-77
2023/01/26 00:04:27;;;;;;;;;;;0.30;82.20;;;;;;5045272;28;19974;-77
2023/01/26 00:06:52;;;;;;;;;;;0.30;82.40;;;;;;5046891;28;19916;-76
2023/01/26 00:09:18;;;;;;;;;;;0.30;82.30;;;;;;5047585;28;19913;-76
2023/01/26 00:11:43;;;;;;;;;;;0.30;82.70;;;;;;5039840;28;19917;-76
2023/01/26 00:14:09;;;;;;;;;;;0.30;82.30;;;;;;5046484;28;20733;-76
2023/01/26 00:16:46;;;;;;;;;;;0.40;81.90;;;;;;5118222;22;19932;-81
2023/01/26 00:19:30;;;;;;;;;;;;;;;;;;;;;
2023/01/26 00:25:10;;;;;;;;;;;0.50;81.50;;;;;;5060022;28;20536;-81
2023/01/26 00:31:08;;;;;;;;;;;0.60;81.60;;;;;;5051837;28;19921;-80
2023/01/26 00:34:03;;;;;;;;;;;0.70;81.20;;;;;;5049910;28;20363;-80
2023/01/26 00:36:58;;;;;;;;;;;0.70;80.90;;;;;;5026676;28;19932;-81
2023/01/26 00:39:38;;;;;;;;;;;0.80;81.10;;;;;;5026874;28;19917;-81
2023/01/26 00:42:16;;;;;;;;;;;0.70;81.00;;;;;;5019266;28;20363;-80
2023/01/26 00:48:26;;;;;;;;;;;0.80;82.00;;;;;;5025748;28;19921;-80
2023/01/26 00:51:39;;;;;;;;;;;0.80;81.30;;;;;;5042777;28;20773;-80
2023/01/26 00:57:32;;;;;;;;;;;0.80;82.00;;;;;;4987007;28;19929;-80
2023/01/26 01:00:15;;;;;;;;;;;;;;;;;;;;;
2023/01/26 01:03:02;;;;;;;;;;;0.70;82.20;;;;;;5045707;28;19913;-81
2023/01/26 01:05:51;;;;;;;;;;;;;;;;;;;;;
2023/01/26 01:08:51;;;;;;;;;;;0.90;82.90;;;;;;5050826;28;19913;-80
2023/01/26 01:20:24;;;;;;;;;;;0.90;83.00;;;;;;5015607;28;19973;-81
2023/01/26 01:23:11;;;;;;;;;;;0.90;82.80;;;;;;5023017;28;19925;-81
2023/01/26 01:29:28;;;;;;;;;;;0.80;83.10;;;;;;5047502;28;20503;-81
2023/01/26 01:35:38;;;;;;;;;;;0.90;84.10;;;;;;5046335;28;19917;-81
2023/01/26 01:38:12;;;;;;;;;;;0.60;84.00;;;;;;5052187;28;19939;-81
2023/01/26 01:44:25;;;;;;;;;;;;;;;;;;;;;
2023/01/26 01:47:27;;;;;;;;;;;0.70;84.10;;;;;;5048517;28;19912;-81
2023/01/26 01:53:25;;;;;;;;;;;;;;;;;;;;;
2023/01/26 01:56:13;;;;;;;;;;;0.60;84.80;;;;;;5046088;28;19912;-80
2023/01/26 01:59:03;;;;;;;;;;;0.60;84.90;;;;;;5044491;28;19959;-81
2023/01/26 02:02:08;;;;;;;;;;;0.70;84.90;;;;;;5051037;28;19920;-80
2023/01/26 02:08:08;;;;;;;;;;;0.70;84.80;;;;;;5037462;28;20404;-80
2023/01/26 02:11:00;;;;;;;;;;;0.60;85.00;;;;;;5048107;28;19985;-81
2023/01/26 02:13:50;;;;;;;;;;;0.70;85.10;;;;;;5032245;28;19921;-81
2023/01/26 02:16:26;;;;;;;;;;;0.60;85.40;;;;;;5044763;28;19924;-80
2023/01/26 02:19:10;;;;;;;;;;;;;;;;;;;;;
2023/01/26 02:30:43;;;;;;;;;;;0.50;86.60;;;;;;5080173;27;19916;-79
2023/01/26 02:33:13;;;;;;;;;;;0.40;86.80;;;;;;5071053;28;20568;-79
2023/01/26 02:35:39;;;;;;;;;;;0.40;86.50;;;;;;5062499;28;19982;-80
2023/01/26 02:38:04;;;;;;;;;;;0.50;86.60;;;;;;5065623;28;20396;-80
2023/01/26 02:40:48;;;;;;;;;;;0.60;86.50;;;;;;5066032;28;19916;-79
2023/01/26 02:43:14;;;;;;;;;;;0.50;86.40;;;;;;5057913;28;19920;-79
2023/01/26 02:45:39;;;;;;;;;;;0.50;86.70;;;;;;5062108;28;19991;-79
2023/01/26 02:48:06;;;;;;;;;;;0.60;86.70;;;;;;5066153;28;19951;-79
2023/01/26 02:50:32;;;;;;;;;;;0.50;86.70;;;;;;5064923;28;19927;-79
2023/01/26 02:52:58;;;;;;;;;;;0.60;86.70;;;;;;5057884;28;19913;-79
2023/01/26 02:55:25;;;;;;;;;;;0.50;86.50;;;;;;5062666;28;19916;-80
2023/01/26 02:57:55;;;;;;;;;;;0.60;86.80;;;;;;5062118;28;19913;-79
2023/01/26 03:00:22;;;;;;;;;;;0.70;86.50;;;;;;5063295;28;19912;-80
2023/01/26 03:02:48;;;;;;;;;;;0.70;86.40;;;;;;5058766;28;19920;-80
2023/01/26 03:05:14;;;;;;;;;;;0.70;86.20;;;;;;5064502;28;20324;-79
2023/01/26 03:07:39;;;;;;;;;;;0.80;86.10;;;;;;5061065;28;19916;-80
2023/01/26 03:10:05;;;;;;;;;;;0.80;85.60;;;;;;5057869;28;20384;-80
2023/01/26 03:12:31;;;;;;;;;;;0.80;85.60;;;;;;5064195;28;20009;-80
2023/01/26 03:15:41;;;;;;;;;;;0.90;85.60;;;;;;5062767;28;19952;-79
2023/01/26 03:17:42;;;;;;;;;;;0.80;85.20;;;;;;5066879;28;19912;-79
2023/01/26 03:28:22;;;;;;;;;;;0.80;85.70;;;;;;5047052;28;20008;-79
2023/01/26 03:30:52;;;;;;;;;;;0.80;85.70;;;;;;5079632;28;20034;-79
2023/01/26 03:33:17;;;;;;;;;;;0.80;86.20;;;;;;5077081;28;19939;-79
2023/01/26 03:35:43;;;;;;;;;;;1.00;86.00;;;;;;5078783;28;20372;-77
2023/01/26 03:38:09;;;;;;;;;;;1.00;85.70;;;;;;5079303;28;19916;-79
2023/01/26 03:57:00;;;;;;;;;;;1.00;85.20;;;;;;5078256;28;20007;-80
2023/01/26 03:59:38;;;;;;;;;;;1.00;85.30;;;;;;5062387;28;19947;-80
2023/01/26 04:10:21;;;;;;;;;;;1.10;85.70;;;;;;5070661;28;19978;-80
2023/01/26 04:23:47;;;;;;;;;;;1.10;85.10;;;;;;5069583;28;20403;-77
2023/01/26 04:26:12;;;;;;;;;;;1.10;85.10;;;;;;5065042;28;20702;-80
2023/01/26 04:28:38;;;;;;;;;;;1.10;85.60;;;;;;5075992;28;19924;-80
2023/01/26 04:31:03;;;;;;;;;;;1.20;85.90;;;;;;5051616;28;19912;-80
2023/01/26 04:33:29;;;;;;;;;;;1.20;85.70;;;;;;5084181;28;20514;-80
2023/01/26 04:35:55;;;;;;;;;;;1.10;85.70;;;;;;5067657;28;19977;-80
2023/01/26 04:38:20;;;;;;;;;;;1.10;85.80;;;;;;5067297;28;19931;-79
2023/01/26 04:40:51;;;;;;;;;;;1.10;85.90;;;;;;5079744;28;19917;-79
2023/01/26 04:43:17;;;;;;;;;;;1.10;85.50;;;;;;5081804;28;19920;-79
2023/01/26 04:45:42;;;;;;;;;;;1.10;85.70;;;;;;5075037;28;19921;-79
2023/01/26 04:48:08;;;;;;;;;;;1.00;85.70;;;;;;5081024;28;19909;-79
2023/01/26 04:50:33;;;;;;;;;;;0.80;86.00;;;;;;5075029;28;19924;-79
2023/01/26 04:52:59;;;;;;;;;;;0.80;86.50;;;;;;5070808;28;19940;-80
2023/01/26 04:55:24;;;;;;;;;;;0.80;86.70;;;;;;5051087;28;21102;-80
2023/01/26 04:57:49;;;;;;;;;;;0.90;86.70;;;;;;5060093;28;19916;-80
2023/01/26 05:00:15;;;;;;;;;;;1.00;86.70;;;;;;5071965;28;20062;-80
2023/01/26 05:02:41;;;;;;;;;;;0.80;86.30;;;;;;5057195;28;19915;-79
2023/01/26 05:05:06;;;;;;;;;;;0.80;86.70;;;;;;5072145;28;19909;-79
2023/01/26 05:07:32;;;;;;;;;;;0.80;87.00;;;;;;5064255;28;20464;-78
2023/01/26 05:09:57;;;;;;;;;;;0.80;87.10;;;;;;5064008;28;19917;-77
2023/01/26 05:12:36;;;;;;;;;;;0.80;87.10;;;;;;5061442;28;19916;-78
2023/01/26 05:15:01;;;;;;;;;;;0.90;87.30;;;;;;5059676;28;20265;-77
2023/01/26 05:17:27;;;;;;;;;;;0.80;87.50;;;;;;5065708;28;20022;-77
2023/01/26 05:19:52;;;;;;;;;;;0.80;87.60;;;;;;5066884;28;20269;-77
2023/01/26 05:22:18;;;;;;;;;;;0.90;87.70;;;;;;5045296;28;20335;-76
2023/01/26 05:24:43;;;;;;;;;;;0.90;87.40;;;;;;5056620;28;19913;-77
2023/01/26 05:27:21;;;;;;;;;;;0.80;87.40;;;;;;5065580;28;19919;-77
2023/01/26 05:29:47;;;;;;;;;;;0.80;87.60;;;;;;5077322;28;19921;-77
2023/01/26 05:32:12;;;;;;;;;;;0.70;88.00;;;;;;5065081;28;20299;-77
2023/01/26 05:34:38;;;;;;;;;;;0.80;88.30;;;;;;5062226;28;19912;-77
2023/01/26 05:37:03;;;;;;;;;;;0.80;87.80;;;;;;5067385;28;19916;-78
2023/01/26 05:39:29;;;;;;;;;;;0.80;87.40;;;;;;5062933;28;19923;-77
2023/01/26 05:41:55;;;;;;;;;;;0.80;87.80;;;;;;5053367;28;19939;-79
2023/01/26 05:44:21;;;;;;;;;;;0.90;87.60;;;;;;5070112;28;19920;-78
2023/01/26 05:46:47;;;;;;;;;;;0.90;87.50;;;;;;5069156;28;19924;-78
2023/01/26 05:49:13;;;;;;;;;;;0.90;87.60;;;;;;5056626;28;20392;-78
2023/01/26 05:51:38;;;;;;;;;;;0.90;87.30;;;;;;5063078;28;19918;-78
2023/01/26 05:54:03;;;;;;;;;;;0.80;87.20;;;;;;5062749;28;19921;-78
2023/01/26 05:56:29;;;;;;;;;;;0.80;87.50;;;;;;5062218;28;19913;-78
2023/01/26 05:58:54;;;;;;;;;;;0.80;87.20;;;;;;5069136;28;19920;-77
2023/01/26 06:01:20;;;;;;;;;;;0.80;87.40;;;;;;5062523;28;19912;-79
2023/01/26 06:03:45;;;;;;;;;;;0.90;87.50;;;;;;5059429;28;19924;-79
2023/01/26 06:06:11;;;;;;;;;;;0.90;87.50;;;;;;5066892;28;19920;-79
2023/01/26 06:08:36;;;;;;;;;;;0.90;87.40;;;;;;5071265;28;19919;-80
2023/01/26 06:11:01;;;;;;;;;;;0.90;87.70;;;;;;5059709;28;19997;-80
2023/01/26 06:13:28;;;;;;;;;;;0.90;87.70;;;;;;5075710;28;20276;-80
2023/01/26 06:16:06;;;;;;;;;;;0.80;87.60;;;;;;5083050;22;19987;-87
2023/01/26 06:18:32;;;;;;;;;;;0.80;87.90;;;;;;5063988;28;19916;-88
2023/01/26 06:21:09;;;;;;;;;;;1.00;87.70;;;;;;5058764;28;20314;-88
2023/01/26 06:30:27;;;;;;;;;;;0.80;87.80;;;;;;4956102;28;19921;-89
2023/01/26 06:32:58;;;;;;;;;;;0.80;88.10;;;;;;5014868;28;19944;-89
2023/01/26 06:35:41;;;;;;;;;;;0.80;88.20;;;;;;5003035;28;19914;-91
2023/01/26 06:44:32;;;;;;;;;;;0.70;88.70;;;;;;5022445;22;19957;-77
2023/01/26 06:46:58;;;;;;;;;;;0.70;88.80;;;;;;5025526;28;19944;-79
2023/01/26 06:49:23;;;;;;;;;;;0.80;88.50;;;;;;5021202;28;19921;-78
2023/01/26 06:51:57;;;;;;;;;;;0.80;88.30;;;;;;5020575;28;20307;-78
2023/01/26 06:54:22;;;;;;;;;;;0.90;88.50;;;;;;5033531;28;19968;-78
2023/01/26 06:56:48;;;;;;;;;;;0.90;88.30;;;;;;5028406;28;19920;-79
2023/01/26 06:59:13;;;;;;;;;;;0.80;87.90;;;;;;5017154;28;20342;-79
2023/01/26 07:01:44;;;;;;;;;;;0.80;88.10;;;;;;5017662;28;19913;-77
2023/01/26 07:04:09;;;;;;;;;;;0.80;87.90;;;;;;5018641;28;20460;-78
2023/01/26 07:06:35;;;;;;;;;;;0.90;88.00;;;;;;5024061;28;19959;-78
2023/01/26 07:09:00;;;;;;;;;;;0.90;87.90;;;;;;5024985;28;20024;-78
2023/01/26 07:11:28;;;;;;;;;;;0.80;88.00;;;;;;5019469;28;19956;-78
2023/01/26 07:13:54;;;;;;;;;;;0.90;88.50;;;;;;5025566;28;19917;-77
2023/01/26 07:16:19;;;;;;;;;;;0.90;88.40;;;;;;5023420;28;19932;-78
2023/01/26 07:18:45;;;;;;;;;;;0.90;88.40;;;;;;5020660;28;19918;-78
2023/01/26 07:21:15;;;;;;;;;;;0.90;88.30;;;;;;5019435;28;19914;-77
2023/01/26 07:23:41;;;;;;;;;;;0.90;88.20;;;;;;5026158;28;19913;-77
2023/01/26 07:26:06;;;;;;;;;;;0.90;88.20;;;;;;5025690;28;19923;-79
2023/01/26 07:28:33;;;;;;;;;;;0.90;88.40;;;;;;5020628;28;19914;-78
2023/01/26 07:31:02;;;;;;;;;;;1.00;88.20;;;;;;5020953;28;19921;-77
2023/01/26 07:33:28;;;;;;;;;;;1.00;88.00;;;;;;5014184;28;20011;-77
2023/01/26 07:35:57;;;;;;;;;;;1.00;87.90;;;;;;5019299;28;20315;-78
2023/01/26 07:38:23;;;;;;;;;;;1.00;88.20;;;;;;5032515;28;19916;-79
2023/01/26 07:40:49;;;;;;;;;;;1.00;88.30;;;;;;5023166;28;19913;-78
2023/01/26 07:43:15;;;;;;;;;;;1.00;88.40;;;;;;5027191;28;19940;-78
2023/01/26 07:45:47;;;;;;;;;;;1.00;88.30;;;;;;5024197;28;19959;-78
2023/01/26 07:48:14;;;;;;;;;;;1.00;88.50;;;;;;5018583;28;19965;-79
2023/01/26 07:50:39;;;;;;;;;;;1.00;88.50;;;;;;5027083;28;19917;-78
2023/01/26 07:53:07;;;;;;;;;;;1.10;88.20;;;;;;5025858;28;19920;-78
2023/01/26 07:55:34;;;;;;;;;;;1.10;88.00;;;;;;5025852;28;19913;-77
2023/01/26 07:57:59;;;;;;;;;;;1.20;87.70;;;;;;5022493;28;19919;-79
2023/01/26 08:00:25;;;;;;;;;;;1.30;87.50;;;;;;5025206;28;20012;-81
2023/01/26 08:02:50;;;;;;;;;;;1.20;87.60;;;;;;5022563;28;19913;-78
2023/01/26 08:05:16;;;;;;;;;;;1.20;87.60;;;;;;5030299;28;20369;-77
2023/01/26 08:07:41;;;;;;;;;;;1.20;87.90;;;;;;5024787;28;20041;-78
2023/01/26 08:10:09;;;;;;;;;;;1.10;87.90;;;;;;5026089;28;19924;-80
2023/01/26 08:12:35;;;;;;;;;;;1.10;88.00;;;;;;5021654;28;20430;-77
2023/01/26 08:15:00;;;;;;;;;;;1.10;87.80;;;;;;5025103;28;19917;-77
2023/01/26 08:17:27;;;;;;;;;;;1.20;87.90;;;;;;5031129;28;19916;-78
2023/01/26 08:19:52;;;;;;;;;;;1.20;88.00;;;;;;5023352;28;20365;-79
2023/01/26 08:22:18;;;;;;;;;;;1.10;88.20;;;;;;5024293;28;19920;-79
2023/01/26 08:24:43;;;;;;;;;;;1.30;88.30;;;;;;5033685;28;20422;-78
2023/01/26 08:27:09;;;;;;;;;;;1.40;87.50;;;;;;5021170;28;20647;-78
2023/01/26 08:29:34;;;;;;;;;;;1.30;87.60;;;;;;5020553;28;20388;-77
2023/01/26 08:32:00;;;;;;;;;;;1.30;87.50;;;;;;5022624;28;19913;-78
2023/01/26 08:34:25;;;;;;;;;;;1.20;87.50;;;;;;5022462;28;19917;-78
2023/01/26 08:36:51;;;;;;;;;;;1.30;87.70;;;;;;5018301;28;19915;-78
2023/01/26 08:39:16;;;;;;;;;;;1.30;87.10;;;;;;5025858;28;19980;-77
2023/01/26 08:41:42;;;;;;;;;;;1.40;86.90;;;;;;5015546;28;19917;-77
2023/01/26 08:44:08;;;;;;;;;;;1.40;87.20;;;;;;5027521;28;20111;-76
2023/01/26 08:46:33;;;;;;;;;;;1.30;86.80;;;;;;5024119;28;19913;-77
2023/01/26 08:48:59;;;;;;;;;;;1.40;86.50;;;;;;5026327;28;20396;-77
2023/01/26 08:51:24;;;;;;;;;;;1.30;86.50;;;;;;5018082;28;20405;-75
2023/01/26 08:53:50;;;;;;;;;;;1.40;86.90;;;;;;5013822;28;20262;-75
2023/01/26 08:56:16;;;;;;;;;;;1.40;87.10;;;;;;5022206;28;19916;-76
2023/01/26 08:58:41;;;;;;;;;;;1.40;87.40;;;;;;5024572;28;19928;-79
2023/01/26 09:01:09;;;;;;;;;;;1.40;87.10;;;;;;5024374;28;20043;-80
2023/01/26 09:03:35;;;;;;;;;;;1.40;87.20;;;;;;5026023;28;20357;-80
2023/01/26 09:06:00;;;;;;;;;;;1.30;87.20;;;;;;5027915;28;19917;-81
2023/01/26 09:08:26;;;;;;;;;;;1.40;87.50;;;;;;5030054;28;19936;-81
2023/01/26 09:10:51;;;;;;;;;;;1.40;87.40;;;;;;5030211;28;19922;-81
2023/01/26 09:13:17;;;;;;;;;;;1.50;87.30;;;;;;5031596;28;19913;-81
2023/01/26 09:15:42;;;;;;;;;;;1.50;87.20;;;;;;5038577;28;19909;-82
2023/01/26 09:18:08;;;;;;;;;;;1.60;87.30;;;;;;5027226;28;19913;-81
2023/01/26 09:20:34;;;;;;;;;;;1.60;87.00;;;;;;5017907;28;19956;-79
2023/01/26 09:22:59;;;;;;;;;;;1.60;87.30;;;;;;5027752;28;19973;-80
2023/01/26 09:25:24;;;;;;;;;;;1.60;87.40;;;;;;5027645;28;19916;-79
2023/01/26 09:27:50;;;;;;;;;;;1.60;87.60;;;;;;5027111;28;19914;-81
2023/01/26 09:30:15;;;;;;;;;;;1.60;87.20;;;;;;5028739;28;19924;-80
2023/01/26 09:32:41;;;;;;;;;;;1.70;87.40;;;;;;5030137;28;19918;-79
2023/01/26 09:35:10;;;;;;;;;;;1.60;87.70;;;;;;5019141;28;19952;-79
2023/01/26 09:37:36;;;;;;;;;;;1.60;87.50;;;;;;5015703;28;19920;-79
2023/01/26 09:40:01;;;;;;;;;;;1.60;87.60;;;;;;5012900;28;20332;-80
2023/01/26 09:42:44;;;;;;;;;;;1.60;87.80;;;;;;5019559;28;19917;-79
2023/01/26 09:45:12;;;;;;;;;;;1.70;87.90;;;;;;5018049;28;19957;-81
2023/01/26 09:47:56;;;;;;;;;;;1.80;88.10;;;;;;5013236;28;19913;-79
2023/01/26 09:50:43;;;;;;;;;;;1.80;87.90;;;;;;5010530;28;19925;-80
2023/01/26 09:53:13;;;;;;;;;;;1.80;87.90;;;;;;5018252;28;19913;-79
2023/01/26 09:55:39;;;;;;;;;;;1.90;87.60;;;;;;5020242;28;19953;-80
2023/01/26 09:58:06;;;;;;;;;;;2.00;87.60;;;;;;5028033;28;19940;-81
2023/01/26 10:00:32;;;;;;;;;;;2.00;87.40;;;;;;5031318;28;19984;-81
2023/01/26 10:03:00;;;;;;;;;;;2.00;87.40;;;;;;5029541;28;19941;-80
2023/01/26 10:05:34;;;;;;;;;;;2.10;87.70;;;;;;5027188;28;19968;-81
2023/01/26 10:08:01;;;;;;;;;;;2.10;87.60;;;;;;5025883;28;19937;-81
2023/01/26 10:10:29;;;;;;;;;;;2.10;87.00;;;;;;5030547;28;19924;-80
2023/01/26 10:12:55;;;;;;;;;;;2.00;87.00;;;;;;5033545;28;20332;-81
2023/01/26 10:15:28;;;;;;;;;;;2.00;87.20;;;;;;5027265;28;19917;-79
2023/01/26 10:17:54;;;;;;;;;;;2.10;87.10;;;;;;5027786;28;20454;-80
2023/01/26 10:20:26;;;;;;;;;;;2.10;86.80;;;;;;5026754;28;19913;-80
2023/01/26 10:22:52;;;;;;;;;;;2.10;86.70;;;;;;5023104;28;19913;-80
2023/01/26 10:25:19;;;;;;;;;;;2.10;87.10;;;;;;5028594;28;19909;-80
2023/01/26 10:27:45;;;;;;;;;;;2.10;87.30;;;;;;5037826;28;19913;-80
2023/01/26 10:30:12;;;;;;;;;;;2.10;87.50;;;;;;5029979;28;19991;-81
2023/01/26 10:32:38;;;;;;;;;;;2.20;86.90;;;;;;5023465;28;20593;-80
2023/01/26 10:35:04;;;;;;;;;;;2.20;87.20;;;;;;5027444;28;19921;-81
2023/01/26 10:37:30;;;;;;;;;;;2.10;87.60;;;;;;5029877;28;19913;-80
2023/01/26 10:40:03;;;;;;;;;;;2.10;87.70;;;;;;5034595;28;19919;-80
2023/01/26 10:42:30;;;;;;;;;;;2.10;87.80;;;;;;5036707;28;19920;-81
2023/01/26 10:44:56;;;;;;;;;;;2.20;87.50;;;;;;5026200;28;19925;-79
2023/01/26 10:47:23;;;;;;;;;;;2.20;87.10;;;;;;5037111;28;20035;-80
2023/01/26 10:49:48;;;;;;;;;;;2.20;87.10;;;;;;5037390;28;19921;-79
2023/01/26 10:52:16;;;;;;;;;;;2.20;86.90;;;;;;5047564;28;19936;-79
2023/01/26 10:54:43;;;;;;;;;;;2.20;87.40;;;;;;5044771;28;20026;-81
2023/01/26 10:57:15;;;;;;;;;;;2.10;87.10;;;;;;5046616;28;19944;-81
2023/01/26 10:59:57;;;;;;;;;;;2.10;87.20;;;;;;5046796;28;19924;-80
2023/01/26 11:02:27;;;;;;;;;;;2.30;87.30;;;;;;5036207;28;19985;-79
2023/01/26 11:05:08;;;;;;;;;;;2.20;87.40;;;;;;5036840;28;19913;-82
2023/01/26 11:07:35;;;;;;;;;;;2.20;87.40;;;;;;5033217;28;19913;-82
2023/01/26 11:10:15;;;;;;;;;;;2.30;87.30;;;;;;5036776;28;19917;-78
2023/01/26 11:12:41;;;;;;;;;;;2.20;87.30;;;;;;5034598;28;20047;-79
2023/01/26 11:15:14;;;;;;;;;;;2.20;87.10;;;;;;5044829;28;20292;-80
2023/01/26 11:17:48;;;;;;;;;;;2.30;87.40;;;;;;5040964;28;19920;-80
2023/01/26 11:20:32;;;;;;;;;;;2.30;87.40;;;;;;5046518;28;19913;-80
2023/01/26 11:23:02;;;;;;;;;;;2.30;87.10;;;;;;5037074;28;19917;-80
2023/01/26 11:25:36;;;;;;;;;;;2.30;87.60;;;;;;5041022;28;19920;-78
2023/01/26 11:28:13;;;;;;;;;;;2.40;87.90;;;;;;5042285;28;19913;-79
2023/01/26 11:30:51;;;;;;;;;;;2.40;87.90;;;;;;5037587;28;19933;-78
2023/01/26 11:33:22;;;;;;;;;;;2.40;87.90;;;;;;5046000;28;19967;-78
2023/01/26 11:35:52;;;;;;;;;;;2.50;87.50;;;;;;5039182;28;20202;-80
2023/01/26 11:38:25;;;;;;;;;;;2.50;87.20;;;;;;5045424;28;19972;-82
2023/01/26 11:40:58;;;;;;;;;;;2.50;87.20;;;;;;5038445;28;19904;-79
2023/01/26 11:43:44;;;;;;;;;;;2.50;87.50;;;;;;5038896;28;19921;-79
2023/01/26 11:46:28;;;;;;;;;;;2.50;87.60;;;;;;5040536;28;19920;-79
2023/01/26 11:49:03;;;;;;;;;;;2.50;87.80;;;;;;5037053;28;19914;-80
2023/01/26 11:51:36;;;;;;;;;;;2.60;87.60;;;;;;5040372;28;19914;-79
2023/01/26 11:54:02;;;;;;;;;;;2.60;87.40;;;;;;5049533;28;19917;-81
2023/01/26 11:56:38;;;;;;;;;;;2.50;87.50;;;;;;5043086;28;19918;-81
2023/01/26 11:59:26;;;;;;;;;;;2.50;87.30;;;;;;5042677;28;19971;-83
2023/01/26 12:01:52;;;;;;;;;;;2.30;87.30;;;;;;5038797;28;19920;-81
2023/01/26 12:04:19;;;;;;;;;;;2.30;87.40;;;;;;5043972;28;19984;-82
2023/01/26 12:06:46;;;;;;;;;;;2.40;88.00;;;;;;5036964;28;19941;-80
2023/01/26 12:09:19;;;;;;;;;;;2.30;88.10;;;;;;5039862;28;19960;-81
2023/01/26 12:11:57;;;;;;;;;;;2.30;88.50;;;;;;5046588;28;19929;-80
2023/01/26 12:14:29;;;;;;;;;;;2.20;88.60;;;;;;5042258;28;19921;-81
2023/01/26 12:17:27;;;;;;;;;;;2.30;88.60;;;;;;5073868;22;20333;-80
2023/01/26 12:20:21;;;;;;;;;;;2.30;88.50;;;;;;5041214;28;20348;-80
2023/01/26 12:23:05;;;;;;;;;;;2.40;88.20;;;;;;5048827;28;20285;-80
2023/01/26 12:26:09;;;;;;;;;;;2.40;88.70;;;;;;5045566;28;20444;-80
2023/01/26 12:28:56;;;;;;;;;;;2.40;88.90;;;;;;5018661;28;19923;-79
2023/01/26 12:31:37;;;;;;;;;;;2.40;88.90;;;;;;5032599;28;19924;-80
2023/01/26 12:34:18;;;;;;;;;;;2.40;89.00;;;;;;5037709;28;19913;-80
2023/01/26 12:37:11;;;;;;;;;;;2.30;88.80;;;;;;5031395;28;19921;-84
2023/01/26 12:39:43;;;;;;;;;;;2.30;88.90;;;;;;5033982;28;20302;-81
2023/01/26 12:42:15;;;;;;;;;;;2.30;88.60;;;;;;5032194;28;19920;-81
2023/01/26 12:44:46;;;;;;;;;;;2.40;88.50;;;;;;5029875;28;19916;-80
2023/01/26 12:47:14;;;;;;;;;;;2.40;88.50;;;;;;5043111;28;20366;-80
2023/01/26 12:49:52;;;;;;;;;;;2.40;88.50;;;;;;5030134;28;19917;-81
2023/01/26 12:52:43;;;;;;;;;;;2.40;88.30;;;;;;5034206;28;19917;-80
2023/01/26 12:55:26;;;;;;;;;;;2.50;88.50;;;;;;5030740;28;19924;-82
2023/01/26 12:57:52;;;;;;;;;;;2.50;88.90;;;;;;5036080;28;19971;-82
2023/01/26 13:03:40;;;;;;;;;;;2.60;88.90;;;;;;5026586;28;19967;-79
2023/01/26 13:06:31;;;;;;;;;;;;;;;;;;;;;
2023/01/26 13:11:54;;;;;;;;;;;2.80;88.60;;;;;;5014928;28;19920;-79
2023/01/26 13:14:52;;;;;;;;;;;2.80;88.00;;;;;;5027056;28;20390;-79
2023/01/26 13:17:53;;;;;;;;;;;2.70;88.10;;;;;;5026827;28;19931;-80
2023/01/26 13:24:00;;;;;;;;;;;2.80;88.10;;;;;;5025877;28;20366;-80
2023/01/26 13:27:25;;;;;;;;;;;2.70;88.30;;;;;;5024733;28;20607;-79
2023/01/26 13:30:23;;;;;;;;;;;2.60;88.70;;;;;;4990559;28;19937;-80
2023/01/26 13:33:03;;;;;;;;;;;;;;;;;;;;;
2023/01/26 13:35:47;;;;;;;;;;;2.70;88.30;;;;;;5028265;28;19917;-79
2023/01/26 13:38:35;;;;;;;;;;;2.60;88.90;;;;;;5024908;28;20338;-79
2023/01/26 13:41:23;;;;;;;;;;;2.70;88.50;;;;;;5028259;28;19967;-80
2023/01/26 13:44:05;;;;;;;;;;;2.70;88.80;;;;;;5022902;28;19928;-79
2023/01/26 13:47:03;;;;;;;;;;;2.80;88.80;;;;;;5023839;28;19913;-79
2023/01/26 13:50:06;;;;;;;;;;;2.70;88.60;;;;;;5034663;28;20011;-80
2023/01/26 13:56:19;;;;;;;;;;;2.70;88.90;;;;;;5033337;28;19971;-79
2023/01/26 13:59:07;;;;;;;;;;;2.70;88.30;;;;;;5029016;28;19967;-79
2023/01/26 14:01:32;;;;;;;;;;;2.60;88.70;;;;;;5027944;28;19921;-78
2023/01/26 14:04:18;;;;;;;;;;;2.60;88.80;;;;;;5028944;28;19913;-80
2023/01/26 14:07:02;;;;;;;;;;;2.60;89.20;;;;;;5029851;28;20293;-80
2023/01/26 14:09:30;;;;;;;;;;;2.60;89.10;;;;;;5026539;28;20121;-79
2023/01/26 14:12:16;;;;;;;;;;;2.70;89.10;;;;;;5032028;28;19916;-79
2023/01/26 14:14:46;;;;;;;;;;;2.60;89.30;;;;;;5021866;28;19969;-79
2023/01/26 14:17:39;;;;;;;;;;;2.70;89.10;;;;;;5025211;28;19987;-79
2023/01/26 14:20:56;;;;;;;;;;;2.70;89.30;;;;;;5024671;28;20019;-79
2023/01/26 14:23:38;;;;;;;;;;;2.80;89.30;;;;;;4967201;28;20386;-79
2023/01/26 14:29:19;;;;;;;;;;;2.80;89.60;;;;;;5008673;28;19917;-79
2023/01/26 14:32:17;;;;;;;;;;;2.80;89.50;;;;;;5044176;28;19971;-79
2023/01/26 14:35:15;;;;;;;;;;;2.80;89.80;;;;;;5017402;28;19958;-79
2023/01/26 14:38:16;;;;;;;;;;;2.80;90.00;;;;;;5027955;28;19963;-79
2023/01/26 14:40:51;;;;;;;;;;;2.70;89.90;;;;;;5023215;28;20035;-79
2023/01/26 14:43:36;;;;;;;;;;;2.80;90.10;;;;;;5025651;28;19913;-80
2023/01/26 14:46:45;;;;;;;;;;;2.80;90.10;;;;;;5039065;28;19971;-79
2023/01/26 14:49:41;;;;;;;;;;;3.00;90.10;;;;;;5026096;28;20012;-79
2023/01/26 14:52:41;;;;;;;;;;;3.00;89.90;;;;;;5020367;28;19917;-79
2023/01/26 14:55:14;;;;;;;;;;;3.10;90.00;;;;;;5019478;28;19945;-79
2023/01/26 14:57:50;;;;;;;;;;;3.10;90.00;;;;;;5022380;28;19917;-78
2023/01/26 15:03:41;;;;;;;;;;;3.20;90.10;;;;;;5026380;28;19924;-79
2023/01/26 15:06:06;;;;;;;;;;;3.30;90.00;;;;;;5025742;28;19913;-78
2023/01/26 15:08:32;;;;;;;;;;;3.30;89.60;;;;;;5024222;28;19920;-79
2023/01/26 15:13:55;;;;;;;;;;;3.30;89.70;;;;;;5024577;28;19964;-80
2023/01/26 15:16:24;;;;;;;;;;;3.30;89.70;;;;;;5024033;28;20465;-79
2023/01/26 15:18:56;;;;;;;;;;;3.20;89.70;;;;;;5019382;28;19921;-78
2023/01/26 15:21:27;;;;;;;;;;;3.20;89.80;;;;;;5020669;28;19920;-79
2023/01/26 15:23:53;;;;;;;;;;;3.30;89.90;;;;;;5020905;28;19920;-79
2023/01/26 15:26:25;;;;;;;;;;;3.30;90.00;;;;;;5023077;28;19925;-79
2023/01/26 15:28:52;;;;;;;;;;;3.30;89.90;;;;;;5019747;28;19996;-78
2023/01/26 15:31:19;;;;;;;;;;;3.30;90.00;;;;;;5015947;28;20106;-80
2023/01/26 15:33:48;;;;;;;;;;;3.30;89.90;;;;;;5021757;28;19913;-78
2023/01/26 15:36:22;;;;;;;;;;;3.40;89.80;;;;;;5025247;28;20012;-78
2023/01/26 15:38:48;;;;;;;;;;;3.30;89.70;;;;;;5026841;28;20110;-79
2023/01/26 15:41:14;;;;;;;;;;;3.30;89.90;;;;;;5024307;28;20001;-79
2023/01/26 15:43:39;;;;;;;;;;;3.30;89.90;;;;;;5029865;28;19914;-78
2023/01/26 15:46:05;;;;;;;;;;;3.30;90.00;;;;;;5040081;28;19921;-78
2023/01/26 15:48:33;;;;;;;;;;;3.40;90.10;;;;;;5032755;28;19913;-78
2023/01/26 15:50:59;;;;;;;;;;;3.50;90.10;;;;;;5023614;28;19964;-79
2023/01/26 15:53:25;;;;;;;;;;;3.50;89.80;;;;;;5024121;28;19922;-78
2023/01/26 15:55:54;;;;;;;;;;;3.40;90.00;;;;;;5023938;28;19928;-79
2023/01/26 15:58:20;;;;;;;;;;;3.40;90.10;;;;;;5027044;28;20116;-78
2023/01/26 16:00:46;;;;;;;;;;;3.50;90.20;;;;;;5024948;28;19928;-78
2023/01/26 16:03:15;;;;;;;;;;;3.50;90.20;;;;;;5023886;28;19917;-78
2023/01/26 16:05:41;;;;;;;;;;;3.50;90.00;;;;;;5019771;28;20376;-78
2023/01/26 16:08:07;;;;;;;;;;;3.40;90.10;;;;;;5023640;28;19948;-78
2023/01/26 16:10:33;;;;;;;;;;;3.30;89.90;;;;;;5026170;28;19949;-79
2023/01/26 16:12:59;;;;;;;;;;;3.30;90.20;;;;;;5027875;28;19968;-78
2023/01/26 16:15:39;;;;;;;;;;;3.30;90.20;;;;;;5024842;28;19957;-78
2023/01/26 16:18:04;;;;;;;;;;;3.40;90.20;;;;;;5019075;28;19926;-78
2023/01/26 16:20:30;;;;;;;;;;;3.40;90.30;;;;;;5027200;28;19920;-78
2023/01/26 16:22:55;;;;;;;;;;;3.50;90.30;;;;;;5028550;28;19913;-78
2023/01/26 16:25:25;;;;;;;;;;;3.50;90.10;;;;;;5023951;28;20302;-78
2023/01/26 16:27:51;;;;;;;;;;;3.50;90.30;;;;;;5029837;28;19913;-78
2023/01/26 16:30:17;;;;;;;;;;;3.40;90.50;;;;;;5026635;28;20365;-78
2023/01/26 16:32:46;;;;;;;;;;;3.40;90.50;;;;;;5044988;28;20382;-78
2023/01/26 16:35:13;;;;;;;;;;;3.50;90.50;;;;;;5033551;28;19917;-79
2023/01/26 16:37:38;;;;;;;;;;;3.50;90.40;;;;;;5021942;28;19917;-78
2023/01/26 16:40:04;;;;;;;;;;;3.50;90.50;;;;;;5026765;28;20365;-78
2023/01/26 16:42:30;;;;;;;;;;;3.60;90.60;;;;;;5025644;28;19917;-78
2023/01/26 16:44:56;;;;;;;;;;;3.50;90.50;;;;;;5029335;28;19917;-79
2023/01/26 16:47:22;;;;;;;;;;;3.50;90.50;;;;;;5022964;28;20363;-79
2023/01/26 16:49:47;;;;;;;;;;;3.50;90.60;;;;;;5024690;28;19974;-79
2023/01/26 16:52:12;;;;;;;;;;;3.50;90.40;;;;;;5036269;28;20295;-79
2023/01/26 16:54:38;;;;;;;;;;;3.50;90.50;;;;;;5030845;28;20326;-83
2023/01/26 16:57:03;;;;;;;;;;;3.60;90.50;;;;;;5023221;28;20386;-79
2023/01/26 16:59:29;;;;;;;;;;;3.70;90.40;;;;;;5028019;28;19932;-79
2023/01/26 17:01:55;;;;;;;;;;;3.70;90.30;;;;;;5033240;28;19913;-80
2023/01/26 17:04:20;;;;;;;;;;;3.70;90.40;;;;;;5027883;28;19956;-79
2023/01/26 17:06:46;;;;;;;;;;;3.70;90.30;;;;;;5025969;28;19995;-79
2023/01/26 17:09:11;;;;;;;;;;;3.70;90.20;;;;;;5026820;28;19971;-79
2023/01/26 17:11:36;;;;;;;;;;;3.70;90.20;;;;;;5026604;28;19913;-79
2023/01/26 17:14:02;;;;;;;;;;;3.60;90.20;;;;;;5031281;28;19913;-79
2023/01/26 17:16:28;;;;;;;;;;;3.70;90.40;;;;;;5027305;28;19976;-79